createdAt,value
2019-03-13T00:00:44.723Z,18.90
2019-03-13T00:01:54.336Z,18.55
2019-03-13T00:03:00.201Z,19.17
2019-03-13T00:04:06.112Z,18.65
2019-03-13T00:05:12.327Z,19.05
2019-03-13T00:06:18.381Z,19.70
2019-03-13T00:07:24.523Z,19.35
2019-03-13T00:08:34.956Z,20.43
2019-03-13T00:09:43.443Z,20.35
2019-03-13T00:10:49.256Z,20.92
2019-03-13T00:11:55.442Z,19.12
2019-03-13T00:13:01.720Z,19.00
2019-03-13T00:14:08.885Z,21.12
2019-03-13T00:15:14.835Z,19.17
2019-03-13T00:16:21.616Z,19.17
2019-03-13T00:17:28.403Z,19.37
2019-03-13T00:18:34.192Z,19.85
2019-03-13T00:19:39.837Z,17.12
2019-03-13T00:20:45.577Z,16.97
2019-03-13T00:21:52.668Z,16.20
2019-03-13T00:22:58.421Z,15.38
2019-03-13T00:24:04.090Z,16.55
2019-03-13T00:25:10.081Z,16.50
2019-03-13T00:26:15.931Z,17.27
2019-03-13T00:27:21.657Z,17.50
2019-03-13T00:28:28.454Z,17.12
2019-03-13T00:29:34.512Z,18.57
2019-03-13T00:30:40.592Z,17.52
2019-03-13T00:31:46.700Z,18.20
2019-03-13T00:32:52.507Z,18.15
2019-03-13T00:33:58.271Z,17.87
2019-03-13T00:35:06.651Z,17.77
2019-03-13T00:36:12.585Z,17.25
2019-03-13T00:37:18.960Z,17.80
2019-03-13T00:38:25.547Z,16.95
2019-03-13T00:39:33.908Z,16.50
2019-03-13T00:40:42.379Z,17.15
2019-03-13T00:41:50.347Z,16.77
2019-03-13T00:42:56.093Z,15.90
2019-03-13T00:44:03.124Z,15.93
2019-03-13T00:45:13.387Z,16.23
2019-03-13T00:46:19.505Z,18.17
2019-03-13T00:47:25.477Z,17.00
2019-03-13T00:48:31.847Z,18.23
2019-03-13T00:49:37.776Z,17.32
2019-03-13T00:50:43.668Z,17.10
2019-03-13T00:51:49.445Z,16.57
2019-03-13T00:52:55.119Z,16.42
2019-03-13T00:54:00.845Z,17.40
2019-03-13T00:55:07.432Z,17.42
2019-03-13T00:56:13.155Z,17.30
2019-03-13T00:57:19.912Z,17.52
2019-03-13T00:58:25.645Z,17.02
2019-03-13T00:59:31.384Z,17.25
2019-03-13T01:00:52.406Z,16.50
2019-03-13T01:02:10.836Z,17.25
2019-03-13T01:03:24.688Z,17.23
2019-03-13T01:04:32.154Z,17.17
2019-03-13T01:05:39.751Z,17.65
2019-03-13T01:06:49.901Z,17.70
2019-03-13T01:07:56.656Z,17.95
2019-03-13T01:09:02.821Z,16.50
2019-03-13T01:10:11.246Z,18.67
2019-03-13T01:11:17.696Z,19.92
2019-03-13T01:12:24.051Z,19.45
2019-03-13T01:13:30.059Z,17.57
2019-03-13T01:14:36.118Z,18.85
2019-03-13T01:15:42.237Z,17.55
2019-03-13T01:16:48.005Z,18.20
2019-03-13T01:17:54.129Z,18.77
2019-03-13T01:19:00.006Z,14.28
2019-03-13T01:20:07.361Z,17.25
2019-03-13T01:21:13.128Z,18.05
2019-03-13T01:22:18.822Z,17.12
2019-03-13T01:23:24.457Z,17.50
2019-03-13T01:24:30.348Z,17.50
2019-03-13T01:25:35.995Z,16.57
2019-03-13T01:26:41.715Z,17.15
2019-03-13T01:27:47.429Z,17.20
2019-03-13T01:28:53.204Z,17.98
2019-03-13T01:29:59.049Z,16.60
2019-03-13T01:31:18.204Z,17.40
2019-03-13T01:32:24.050Z,16.82
2019-03-13T01:33:30.539Z,15.90
2019-03-13T01:34:41.647Z,15.50
2019-03-13T01:35:52.256Z,15.80
2019-03-13T01:36:58.423Z,15.05
2019-03-13T01:38:04.878Z,15.58
2019-03-13T01:39:10.956Z,15.53
2019-03-13T01:40:17.126Z,18.02
2019-03-13T01:41:24.128Z,16.27
2019-03-13T01:42:29.960Z,16.60
2019-03-13T01:43:35.938Z,16.60
2019-03-13T01:44:42.244Z,17.40
2019-03-13T01:45:48.387Z,16.10
2019-03-13T01:46:54.488Z,16.02
2019-03-13T01:48:01.780Z,16.07
2019-03-13T01:49:07.468Z,15.58
2019-03-13T01:50:13.942Z,15.55
2019-03-13T01:51:19.661Z,13.38
2019-03-13T01:52:25.468Z,14.65
2019-03-13T01:53:31.102Z,14.20
2019-03-13T01:54:39.219Z,15.00
2019-03-13T01:55:44.978Z,14.95
2019-03-13T01:56:50.947Z,14.73
2019-03-13T01:57:56.660Z,14.20
2019-03-13T01:59:02.390Z,15.55
2019-03-13T02:00:14.655Z,13.58
2019-03-13T02:01:20.533Z,14.55
2019-03-13T02:02:26.527Z,14.05
2019-03-13T02:03:33.068Z,13.03
2019-03-13T02:04:39.395Z,13.98
2019-03-13T02:05:46.900Z,15.10
2019-03-13T02:06:53.257Z,14.75
2019-03-13T02:07:59.668Z,13.88
2019-03-13T02:09:06.376Z,14.95
2019-03-13T02:10:13.643Z,15.50
2019-03-13T02:11:20.215Z,15.20
2019-03-13T02:12:26.124Z,14.65
2019-03-13T02:13:31.963Z,15.18
2019-03-13T02:14:40.187Z,14.00
2019-03-13T02:15:46.729Z,13.38
2019-03-13T02:16:53.005Z,14.53
2019-03-13T02:18:00.060Z,11.60
2019-03-13T02:19:06.311Z,12.80
2019-03-13T02:20:12.266Z,13.45
2019-03-13T02:21:17.995Z,12.75
2019-03-13T02:22:24.791Z,12.13
2019-03-13T02:23:30.720Z,13.45
2019-03-13T02:24:36.450Z,12.70
2019-03-13T02:25:42.392Z,13.62
2019-03-13T02:26:48.051Z,13.65
2019-03-13T02:27:53.790Z,13.55
2019-03-13T02:28:59.528Z,14.25
2019-03-13T02:30:18.228Z,15.35
2019-03-13T02:31:24.202Z,13.35
2019-03-13T02:32:30.541Z,14.65
2019-03-13T02:33:36.455Z,14.45
2019-03-13T02:34:43.421Z,15.43
2019-03-13T02:35:49.511Z,13.38
2019-03-13T02:36:56.282Z,13.70
2019-03-13T02:38:02.022Z,14.47
2019-03-13T02:39:07.810Z,14.38
2019-03-13T02:40:16.056Z,13.72
2019-03-13T02:41:22.033Z,13.75
2019-03-13T02:42:28.886Z,13.68
2019-03-13T02:43:34.938Z,14.58
2019-03-13T02:44:41.947Z,12.68
2019-03-13T02:45:48.465Z,13.03
2019-03-13T02:46:54.375Z,15.00
2019-03-13T02:48:01.043Z,13.93
2019-03-13T02:49:07.542Z,14.23
2019-03-13T02:50:18.093Z,13.62
2019-03-13T02:51:23.865Z,12.37
2019-03-13T02:52:30.900Z,14.33
2019-03-13T02:53:36.638Z,13.30
2019-03-13T02:54:42.442Z,11.97
2019-03-13T02:55:48.098Z,12.25
2019-03-13T02:56:53.762Z,12.90
2019-03-13T02:57:59.590Z,11.53
2019-03-13T02:59:05.331Z,14.07
2019-03-13T03:00:18.628Z,12.53
2019-03-13T03:01:26.423Z,11.93
2019-03-13T03:02:33.932Z,11.70
2019-03-13T03:03:41.933Z,11.97
2019-03-13T03:04:47.878Z,11.48
2019-03-13T03:05:53.633Z,12.07
2019-03-13T03:07:00.361Z,12.60
2019-03-13T03:08:06.806Z,12.63
2019-03-13T03:09:13.234Z,11.97
2019-03-13T03:10:20.310Z,10.82
2019-03-13T03:11:26.750Z,11.78
2019-03-13T03:12:32.577Z,11.60
2019-03-13T03:13:38.672Z,11.78
2019-03-13T03:15:00.572Z,11.43
2019-03-13T03:16:07.359Z,10.80
2019-03-13T03:17:14.162Z,11.18
2019-03-13T03:18:20.201Z,11.15
2019-03-13T03:19:26.991Z,11.73
2019-03-13T03:20:32.908Z,10.82
2019-03-13T03:21:38.673Z,10.38
2019-03-13T03:22:44.356Z,11.38
2019-03-13T03:23:51.161Z,11.80
2019-03-13T03:24:56.882Z,10.03
2019-03-13T03:26:02.650Z,10.75
2019-03-13T03:27:08.390Z,11.30
2019-03-13T03:28:14.094Z,11.30
2019-03-13T03:29:19.872Z,11.55
2019-03-13T03:30:25.831Z,11.30
2019-03-13T03:31:31.817Z,10.18
2019-03-13T03:32:38.071Z,10.05
2019-03-13T03:33:45.728Z,9.43
2019-03-13T03:34:52.358Z,9.93
2019-03-13T03:35:58.552Z,9.58
2019-03-13T03:37:04.695Z,10.90
2019-03-13T03:38:10.698Z,10.53
2019-03-13T03:39:16.835Z,11.25
2019-03-13T03:40:23.869Z,11.22
2019-03-13T03:41:30.002Z,11.45
2019-03-13T03:42:36.325Z,10.75
2019-03-13T03:43:43.082Z,11.73
2019-03-13T03:44:49.507Z,9.63
2019-03-13T03:45:55.412Z,10.88
2019-03-13T03:47:02.144Z,10.82
2019-03-13T03:48:09.948Z,8.85
2019-03-13T03:49:15.996Z,11.93
2019-03-13T03:50:21.754Z,10.60
2019-03-13T03:51:27.483Z,10.63
2019-03-13T03:52:33.232Z,10.05
2019-03-13T03:53:38.981Z,10.55
2019-03-13T03:54:44.729Z,10.68
2019-03-13T03:55:50.433Z,9.48
2019-03-13T03:56:56.184Z,10.50
2019-03-13T03:58:01.957Z,7.87
2019-03-13T03:59:08.813Z,9.80
2019-03-13T04:00:19.556Z,10.23
2019-03-13T04:01:25.520Z,9.78
2019-03-13T04:02:32.507Z,9.63
2019-03-13T04:03:39.004Z,10.75
2019-03-13T04:04:45.290Z,10.20
2019-03-13T04:05:51.955Z,11.38
2019-03-13T04:06:58.392Z,10.70
2019-03-13T04:08:04.503Z,10.23
2019-03-13T04:09:11.843Z,10.68
2019-03-13T04:10:19.044Z,9.93
2019-03-13T04:11:24.865Z,10.82
2019-03-13T04:12:30.878Z,10.78
2019-03-13T04:13:37.693Z,11.65
2019-03-13T04:14:44.232Z,10.08
2019-03-13T04:15:51.193Z,10.65
2019-03-13T04:16:57.134Z,9.98
2019-03-13T04:18:02.959Z,9.48
2019-03-13T04:19:09.776Z,9.65
2019-03-13T04:20:19.104Z,10.15
2019-03-13T04:21:25.854Z,10.88
2019-03-13T04:22:31.695Z,10.68
2019-03-13T04:23:37.438Z,10.18
2019-03-13T04:24:44.188Z,11.05
2019-03-13T04:25:49.925Z,10.93
2019-03-13T04:26:55.677Z,11.05
2019-03-13T04:28:01.425Z,10.05
2019-03-13T04:29:08.487Z,10.78
2019-03-13T04:30:14.473Z,12.30
2019-03-13T04:31:20.785Z,11.22
2019-03-13T04:32:26.906Z,10.45
2019-03-13T04:33:34.715Z,9.68
2019-03-13T04:34:41.722Z,8.03
2019-03-13T04:35:48.175Z,8.43
2019-03-13T04:36:54.490Z,10.72
2019-03-13T04:38:00.765Z,8.83
2019-03-13T04:39:07.462Z,10.65
2019-03-13T04:40:15.587Z,9.95
2019-03-13T04:41:22.199Z,10.25
2019-03-13T04:42:28.032Z,9.33
2019-03-13T04:43:34.283Z,9.00
2019-03-13T04:44:40.485Z,9.00
2019-03-13T04:45:46.870Z,7.92
2019-03-13T04:46:53.853Z,8.90
2019-03-13T04:48:00.531Z,8.98
2019-03-13T04:49:06.801Z,8.50
2019-03-13T04:50:16.404Z,9.18
2019-03-13T04:51:22.427Z,9.83
2019-03-13T04:52:28.077Z,10.63
2019-03-13T04:53:33.774Z,8.10
2019-03-13T04:54:39.497Z,9.08
2019-03-13T04:55:45.385Z,9.35
2019-03-13T04:56:51.304Z,8.13
2019-03-13T04:57:57.132Z,9.68
2019-03-13T04:59:04.722Z,9.10
2019-03-13T05:00:17.199Z,10.23
2019-03-13T05:01:26.096Z,9.00
2019-03-13T05:02:30.372Z,9.43
2019-03-13T05:03:55.463Z,8.30
2019-03-13T05:05:01.246Z,8.60
2019-03-13T05:06:12.285Z,7.85
2019-03-13T05:07:18.785Z,8.80
2019-03-13T05:08:44.220Z,8.80
2019-03-13T05:09:41.077Z,8.20
2019-03-13T05:10:47.704Z,9.28
2019-03-13T05:11:54.503Z,8.53
2019-03-13T05:13:01.049Z,8.33
2019-03-13T05:14:07.223Z,7.92
2019-03-13T05:15:13.838Z,7.83
2019-03-13T05:16:20.394Z,7.95
2019-03-13T05:17:26.722Z,8.68
2019-03-13T05:18:33.385Z,9.25
2019-03-13T05:19:40.005Z,9.28
2019-03-13T05:20:46.445Z,9.53
2019-03-13T05:21:52.263Z,6.20
2019-03-13T05:22:58.075Z,11.28
2019-03-13T05:24:05.003Z,9.13
2019-03-13T05:25:10.715Z,9.03
2019-03-13T05:26:18.195Z,10.18
2019-03-13T05:27:24.209Z,7.97
2019-03-13T05:28:30.085Z,7.62
2019-03-13T05:29:36.976Z,8.48
2019-03-13T05:30:43.027Z,9.18
2019-03-13T05:31:48.952Z,9.43
2019-03-13T05:32:55.858Z,8.55
2019-03-13T05:34:01.812Z,9.95
2019-03-13T05:35:08.231Z,10.32
2019-03-13T05:36:17.016Z,8.78
2019-03-13T05:37:23.209Z,8.70
2019-03-13T05:38:30.989Z,8.30
2019-03-13T05:39:39.469Z,9.18
2019-03-13T05:40:45.649Z,8.60
2019-03-13T05:41:52.530Z,9.25
2019-03-13T05:42:59.259Z,9.13
2019-03-13T05:44:05.696Z,8.98
2019-03-13T05:45:12.169Z,8.40
2019-03-13T05:46:18.759Z,9.25
2019-03-13T05:47:42.489Z,9.98
2019-03-13T05:48:48.899Z,8.38
2019-03-13T05:49:54.827Z,8.83
2019-03-13T05:51:01.740Z,8.63
2019-03-13T05:52:07.829Z,9.10
2019-03-13T05:53:13.768Z,8.48
2019-03-13T05:54:19.826Z,8.65
2019-03-13T05:55:25.929Z,9.03
2019-03-13T05:56:31.719Z,8.68
2019-03-13T05:57:37.942Z,7.92
2019-03-13T05:58:44.319Z,8.13
2019-03-13T05:59:50.379Z,7.78
2019-03-13T06:00:56.989Z,8.45
2019-03-13T06:02:03.869Z,8.80
2019-03-13T06:03:09.649Z,9.93
2019-03-13T06:04:15.589Z,8.20
2019-03-13T06:05:21.600Z,8.03
2019-03-13T06:06:27.850Z,9.63
2019-03-13T06:07:35.036Z,8.63
2019-03-13T06:08:40.799Z,8.73
2019-03-13T06:09:50.758Z,9.03
2019-03-13T06:10:57.581Z,7.78
2019-03-13T06:12:03.540Z,7.15
2019-03-13T06:13:09.776Z,9.10
2019-03-13T06:14:16.346Z,8.95
2019-03-13T06:15:22.509Z,7.95
2019-03-13T06:16:30.427Z,8.38
2019-03-13T06:17:37.867Z,8.35
2019-03-13T06:18:43.841Z,9.10
2019-03-13T06:19:50.553Z,9.13
2019-03-13T06:20:59.780Z,7.10
2019-03-13T06:22:05.668Z,10.78
2019-03-13T06:23:11.749Z,11.80
2019-03-13T06:24:17.870Z,11.60
2019-03-13T06:25:23.718Z,9.28
2019-03-13T06:26:29.470Z,8.35
2019-03-13T06:27:35.900Z,8.28
2019-03-13T06:28:43.699Z,9.28
2019-03-13T06:29:49.553Z,9.95
2019-03-13T06:30:56.641Z,10.98
2019-03-13T06:32:02.671Z,10.88
2019-03-13T06:33:08.920Z,13.05
2019-03-13T06:34:14.722Z,10.43
2019-03-13T06:35:23.590Z,8.45
2019-03-13T06:36:29.063Z,9.08
2019-03-13T06:37:35.096Z,9.65
2019-03-13T06:38:43.300Z,8.35
2019-03-13T06:39:50.799Z,10.00
2019-03-13T06:40:59.127Z,11.43
2019-03-13T06:42:06.991Z,8.63
2019-03-13T06:43:12.948Z,11.38
2019-03-13T06:44:19.867Z,14.47
2019-03-13T06:45:26.361Z,12.28
2019-03-13T06:46:33.348Z,8.40
2019-03-13T06:47:39.840Z,9.00
2019-03-13T06:48:45.944Z,8.63
2019-03-13T06:49:52.038Z,13.78
2019-03-13T06:50:58.661Z,11.45
2019-03-13T06:52:04.700Z,12.05
2019-03-13T06:53:10.678Z,14.03
2019-03-13T06:54:16.741Z,13.60
2019-03-13T06:55:23.022Z,15.75
2019-03-13T06:56:29.891Z,13.32
2019-03-13T06:57:35.991Z,11.00
2019-03-13T06:58:46.438Z,10.53
2019-03-13T07:00:03.463Z,8.00
2019-03-13T07:01:11.190Z,8.40
2019-03-13T07:02:23.672Z,8.00
2019-03-13T07:03:49.326Z,9.33
2019-03-13T07:05:00.390Z,9.05
2019-03-13T07:06:24.817Z,8.23
2019-03-13T07:07:48.771Z,8.25
2019-03-13T07:08:56.968Z,9.30
2019-03-13T07:10:08.022Z,7.33
2019-03-13T07:11:26.061Z,6.72
2019-03-13T07:12:50.300Z,7.50
2019-03-13T07:13:58.222Z,8.33
2019-03-13T07:15:13.620Z,13.60
2019-03-13T07:16:32.191Z,19.87
2019-03-13T07:17:39.898Z,18.55
2019-03-13T07:18:57.557Z,15.35
2019-03-13T07:20:14.966Z,12.00
2019-03-13T07:21:23.725Z,15.93
2019-03-13T07:22:37.451Z,13.55
2019-03-13T07:23:46.902Z,10.72
2019-03-13T07:25:09.634Z,12.37
2019-03-13T07:26:24.521Z,12.58
2019-03-13T07:27:45.599Z,10.93
2019-03-13T07:29:11.985Z,11.43
2019-03-13T07:30:16.569Z,8.85
2019-03-13T07:31:26.688Z,10.30
2019-03-13T07:32:34.011Z,11.97
2019-03-13T07:33:44.462Z,10.08
2019-03-13T07:34:56.823Z,7.15
2019-03-13T07:36:06.442Z,6.55
2019-03-13T07:37:17.022Z,8.88
2019-03-13T07:38:31.673Z,9.48
2019-03-13T07:39:44.982Z,7.92
2019-03-13T07:40:55.770Z,10.63
2019-03-13T07:42:14.543Z,11.53
2019-03-13T07:43:31.200Z,15.55
2019-03-13T07:46:09.042Z,8.25
2019-03-13T07:47:32.810Z,9.58
2019-03-13T07:48:49.360Z,9.60
2019-03-13T07:50:10.496Z,7.92
2019-03-13T07:51:22.212Z,10.05
2019-03-13T07:52:33.102Z,9.60
2019-03-13T07:53:56.891Z,8.03
2019-03-13T07:55:05.798Z,8.93
2019-03-13T07:56:13.418Z,10.98
2019-03-13T07:57:24.857Z,9.55
2019-03-13T07:58:39.680Z,9.55
2019-03-13T07:59:53.194Z,7.58
2019-03-13T08:01:03.349Z,10.75
2019-03-13T08:02:12.444Z,10.13
2019-03-13T08:03:27.436Z,7.85
2019-03-13T08:04:51.844Z,8.93
2019-03-13T08:06:06.679Z,10.50
2019-03-13T08:07:26.219Z,10.72
2019-03-13T08:08:34.839Z,9.35
2019-03-13T08:09:40.772Z,9.50
2019-03-13T08:10:51.380Z,10.40
2019-03-13T08:12:00.056Z,7.50
2019-03-13T08:13:27.358Z,7.20
2019-03-13T08:14:43.645Z,6.62
2019-03-13T08:15:51.041Z,7.05
2019-03-13T08:17:18.402Z,8.83
2019-03-13T08:18:41.161Z,7.60
2019-03-13T08:19:50.104Z,8.88
2019-03-13T08:21:10.432Z,9.73
2019-03-13T08:22:33.900Z,8.35
2019-03-13T08:23:44.440Z,8.35
2019-03-13T08:25:08.294Z,6.87
2019-03-13T08:26:22.353Z,7.30
2019-03-13T08:27:36.992Z,7.35
2019-03-13T08:28:47.350Z,9.93
2019-03-13T08:29:54.520Z,10.45
2019-03-13T08:31:03.546Z,9.15
2019-03-13T08:32:28.963Z,8.65
2019-03-13T08:33:54.443Z,9.33
2019-03-13T08:35:10.843Z,7.50
2019-03-13T08:36:35.013Z,7.55
2019-03-13T08:37:42.060Z,5.95
2019-03-13T08:38:52.073Z,6.45
2019-03-13T08:40:16.299Z,10.32
2019-03-13T08:41:36.431Z,9.83
2019-03-13T08:42:44.103Z,7.47
2019-03-13T08:43:57.771Z,6.97
2019-03-13T08:45:06.743Z,7.10
2019-03-13T08:46:20.381Z,14.18
2019-03-13T08:47:44.617Z,16.65
2019-03-13T08:49:06.324Z,15.10
2019-03-13T08:50:30.133Z,12.53
2019-03-13T08:51:47.663Z,8.93
2019-03-13T08:53:11.973Z,7.53
2019-03-13T08:54:37.600Z,10.03
2019-03-13T08:55:54.048Z,9.40
2019-03-13T08:57:14.021Z,7.85
2019-03-13T08:58:33.403Z,6.62
2019-03-13T08:59:40.801Z,7.05
2019-03-13T09:00:47.316Z,8.18
2019-03-13T09:01:58.844Z,7.78
2019-03-13T09:03:09.194Z,7.40
2019-03-13T09:04:25.854Z,5.67
2019-03-13T09:05:49.631Z,6.45
2019-03-13T09:07:00.113Z,6.90
2019-03-13T09:08:06.524Z,6.70
2019-03-13T09:09:12.821Z,8.00
2019-03-13T09:10:36.240Z,7.85
2019-03-13T09:13:46.245Z,6.78
2019-03-13T09:14:54.190Z,6.72
2019-03-13T09:16:07.838Z,6.75
2019-03-13T09:17:19.228Z,6.10
2019-03-13T09:18:47.566Z,5.67
2019-03-13T09:19:53.963Z,5.75
2019-03-13T09:21:08.609Z,6.90
2019-03-13T09:22:17.483Z,5.67
2019-03-13T09:23:41.318Z,5.00
2019-03-13T09:24:49.477Z,5.17
2019-03-13T09:25:56.450Z,4.57
2019-03-13T09:27:08.270Z,5.03
2019-03-13T09:28:32.329Z,5.27
2019-03-13T09:29:38.277Z,4.75
2019-03-13T09:30:53.888Z,5.10
2019-03-13T09:32:17.024Z,4.65
2019-03-13T09:33:31.540Z,5.87
2019-03-13T09:34:45.556Z,5.43
2019-03-13T09:35:54.530Z,5.03
2019-03-13T09:37:00.551Z,4.77
2019-03-13T09:38:08.220Z,4.07
2019-03-13T09:39:18.939Z,4.03
2019-03-13T09:40:31.143Z,3.90
2019-03-13T09:41:39.426Z,4.43
2019-03-13T09:42:47.498Z,2.90
2019-03-13T09:44:14.159Z,3.23
2019-03-13T09:45:27.895Z,3.70
2019-03-13T09:46:41.822Z,5.77
2019-03-13T09:48:06.872Z,5.87
2019-03-13T09:49:24.277Z,4.10
2019-03-13T09:50:37.598Z,5.63
2019-03-13T09:51:45.389Z,3.80
2019-03-13T09:52:55.503Z,4.00
2019-03-13T09:54:09.019Z,3.73
2019-03-13T09:55:33.386Z,4.30
2019-03-13T09:56:47.866Z,3.17
2019-03-13T09:57:58.936Z,3.10
2019-03-13T09:59:23.845Z,3.07
2019-03-13T10:00:48.090Z,4.13
2019-03-13T10:02:20.995Z,4.43
2019-03-13T10:04:14.655Z,3.50
2019-03-13T10:05:43.435Z,3.13
2019-03-13T10:09:08.353Z,3.43
2019-03-13T10:10:36.898Z,3.60
2019-03-13T10:12:05.172Z,4.67
2019-03-13T10:13:22.633Z,3.63
2019-03-13T10:14:40.634Z,3.13
2019-03-13T10:15:52.424Z,2.70
2019-03-13T10:17:17.234Z,3.00
2019-03-13T10:18:35.137Z,2.70
2019-03-13T10:19:53.870Z,2.97
2019-03-13T10:22:54.317Z,2.60
2019-03-13T10:24:30.619Z,2.90
2019-03-13T10:26:09.575Z,2.60
2019-03-13T10:27:28.851Z,2.37
2019-03-13T10:28:57.090Z,2.70
2019-03-13T10:30:30.059Z,2.27
2019-03-13T10:31:46.997Z,2.57
2019-03-13T10:33:07.945Z,2.67
2019-03-13T10:34:28.155Z,2.70
2019-03-13T10:37:56.987Z,2.63
2019-03-13T10:39:26.117Z,2.40
2019-03-13T10:40:48.057Z,2.27
2019-03-13T10:42:27.548Z,1.80
2019-03-13T10:43:54.752Z,2.10
2019-03-13T10:45:24.580Z,1.73
2019-03-13T10:47:00.877Z,2.07
2019-03-13T10:48:24.039Z,1.87
2019-03-13T10:49:47.810Z,1.63
2019-03-13T10:51:17.951Z,1.73
2019-03-13T10:52:36.451Z,1.60
2019-03-13T10:54:00.074Z,2.73
2019-03-13T10:55:24.039Z,1.90
2019-03-13T10:56:39.212Z,1.70
2019-03-13T10:57:53.504Z,1.50
2019-03-13T10:59:04.378Z,2.33
2019-03-13T11:00:29.186Z,1.90
2019-03-13T11:01:56.191Z,2.33
2019-03-13T11:03:11.871Z,2.43
2019-03-13T11:04:37.280Z,3.60
2019-03-13T11:05:52.351Z,2.60
2019-03-13T11:07:08.607Z,2.03
2019-03-13T11:10:21.095Z,2.50
2019-03-13T11:11:46.791Z,2.27
2019-03-13T11:12:58.790Z,2.47
2019-03-13T11:14:16.203Z,2.57
2019-03-13T11:15:25.151Z,2.13
2019-03-13T11:16:34.862Z,2.10
2019-03-13T11:18:00.981Z,1.80
2019-03-13T11:19:16.586Z,2.17
2019-03-13T11:20:40.858Z,2.17
2019-03-13T11:21:56.525Z,2.63
2019-03-13T11:23:10.302Z,3.90
2019-03-13T11:24:22.720Z,2.77
2019-03-13T11:25:36.857Z,2.40
2019-03-13T11:26:49.259Z,2.50
2019-03-13T11:28:01.352Z,2.73
2019-03-13T11:29:19.900Z,4.40
2019-03-13T11:30:28.835Z,5.67
2019-03-13T11:31:52.897Z,4.00
2019-03-13T11:33:16.462Z,3.27
2019-03-13T11:34:38.550Z,2.80
2019-03-13T11:38:11.109Z,2.40
2019-03-13T11:38:18.144Z,2.70
2019-03-13T11:39:35.404Z,2.00
2019-03-13T11:41:05.116Z,5.10
2019-03-13T11:42:57.093Z,3.70
2019-03-13T11:46:05.691Z,5.07
2019-03-13T11:47:24.071Z,9.23
2019-03-13T11:48:51.531Z,10.47
2019-03-13T11:50:20.532Z,23.30
2019-03-13T11:51:31.976Z,21.83
2019-03-13T11:52:50.784Z,33.43
2019-03-13T11:54:19.166Z,24.77
2019-03-13T11:55:49.610Z,13.93
2019-03-13T11:57:02.432Z,3.23
2019-03-13T11:58:23.661Z,4.20
2019-03-13T11:59:39.415Z,2.93
2019-03-13T12:00:51.192Z,3.00
2019-03-13T12:02:17.358Z,2.13
2019-03-13T12:03:47.899Z,3.73
2019-03-13T12:05:01.722Z,3.30
2019-03-13T12:06:16.485Z,3.77
2019-03-13T12:07:52.883Z,4.77
2019-03-13T12:09:12.964Z,3.10
2019-03-13T12:10:48.718Z,4.50
2019-03-13T12:12:12.557Z,5.90
2019-03-13T12:13:48.076Z,6.27
2019-03-13T12:15:12.991Z,2.37
2019-03-13T12:16:44.321Z,7.73
2019-03-13T12:20:00.642Z,5.70
2019-03-13T12:21:18.748Z,6.03
2019-03-13T12:22:43.674Z,2.80
2019-03-13T12:24:02.923Z,9.73
2019-03-13T12:25:17.930Z,9.10
2019-03-13T12:26:41.525Z,6.87
2019-03-13T12:28:22.828Z,6.97
2019-03-13T12:29:40.719Z,4.77
2019-03-13T12:30:57.931Z,2.20
2019-03-13T12:32:23.475Z,2.00
2019-03-13T12:35:19.053Z,2.77
2019-03-13T12:36:36.847Z,2.10
2019-03-13T12:37:49.581Z,2.37
2019-03-13T12:39:22.832Z,2.73
2019-03-13T12:40:43.715Z,6.93
2019-03-13T12:42:15.800Z,8.70
2019-03-13T12:43:53.200Z,4.30
2019-03-13T12:45:18.428Z,3.57
2019-03-13T12:46:36.864Z,5.47
2019-03-13T12:48:01.061Z,2.83
2019-03-13T12:49:34.550Z,3.37
2019-03-13T12:50:49.194Z,2.50
2019-03-13T12:52:25.587Z,2.93
2019-03-13T12:53:42.214Z,2.70
2019-03-13T12:55:06.443Z,2.40
2019-03-13T12:56:19.277Z,2.67
2019-03-13T12:57:38.794Z,3.20
2019-03-13T12:59:02.260Z,2.20
2019-03-13T13:00:17.992Z,2.40
2019-03-13T13:01:30.161Z,2.47
2019-03-13T13:02:56.835Z,2.30
2019-03-13T13:04:12.965Z,1.93
2019-03-13T13:05:24.128Z,2.10
2019-03-13T13:06:32.350Z,2.00
2019-03-13T13:07:43.686Z,1.80
2019-03-13T13:08:51.249Z,3.70
2019-03-13T13:09:57.682Z,2.27
2019-03-13T13:11:10.143Z,1.97
2019-03-13T13:12:22.618Z,2.37
2019-03-13T13:13:45.658Z,2.60
2019-03-13T13:14:53.312Z,2.27
2019-03-13T13:16:17.198Z,1.90
2019-03-13T13:17:30.582Z,2.63
2019-03-13T13:18:36.064Z,2.10
2019-03-13T13:19:42.312Z,1.90
2019-03-13T13:20:48.725Z,1.90
2019-03-13T13:21:55.100Z,2.10
2019-03-13T13:23:01.827Z,1.83
2019-03-13T13:24:09.781Z,1.40
2019-03-13T13:25:15.662Z,1.70
2019-03-13T13:26:21.449Z,2.20
2019-03-13T13:27:27.307Z,2.10
2019-03-13T13:28:33.463Z,1.80
2019-03-13T13:29:39.175Z,1.90
2019-03-13T13:30:44.965Z,1.90
2019-03-13T13:31:50.693Z,2.30
2019-03-13T13:32:56.484Z,1.73
2019-03-13T13:34:02.269Z,1.93
2019-03-13T13:35:10.604Z,1.87
2019-03-13T13:36:16.361Z,2.17
2019-03-13T13:37:24.832Z,2.33
2019-03-13T13:38:30.691Z,3.27
2019-03-13T13:39:36.827Z,3.07
2019-03-13T13:40:42.753Z,2.57
2019-03-13T13:41:48.630Z,2.87
2019-03-13T13:42:54.420Z,2.57
2019-03-13T13:44:01.161Z,2.23
2019-03-13T13:45:33.115Z,1.93
2019-03-13T13:46:38.833Z,2.10
2019-03-13T13:47:44.533Z,2.00
2019-03-13T13:48:51.094Z,2.30
2019-03-13T13:49:59.856Z,2.43
2019-03-13T13:51:04.541Z,2.10
2019-03-13T13:52:10.501Z,2.53
2019-03-13T13:53:17.301Z,2.43
2019-03-13T13:54:23.108Z,2.90
2019-03-13T13:55:29.004Z,2.00
2019-03-13T13:56:35.259Z,1.80
2019-03-13T13:57:41.061Z,1.60
2019-03-13T13:58:46.905Z,1.63
2019-03-13T13:59:52.679Z,1.70
2019-03-13T14:01:05.644Z,1.63
2019-03-13T14:02:11.780Z,1.83
2019-03-13T14:03:25.970Z,1.70
2019-03-13T14:04:31.927Z,2.10
2019-03-13T14:05:40.731Z,1.80
2019-03-13T14:06:45.239Z,2.00
2019-03-13T14:07:51.416Z,2.03
2019-03-13T14:08:57.122Z,2.33
2019-03-13T14:10:03.718Z,2.30
2019-03-13T14:11:10.857Z,2.60
2019-03-13T14:12:19.948Z,2.20
2019-03-13T14:13:24.952Z,1.90
2019-03-13T14:14:30.860Z,2.53
2019-03-13T14:15:36.781Z,1.87
2019-03-13T14:16:42.863Z,2.30
2019-03-13T14:17:48.708Z,2.00
2019-03-13T14:18:55.392Z,1.90
2019-03-13T14:20:01.453Z,2.10
2019-03-13T14:21:07.419Z,2.60
2019-03-13T14:23:04.065Z,2.40
2019-03-13T14:24:10.432Z,1.90
2019-03-13T14:25:16.482Z,1.83
2019-03-13T14:26:23.095Z,1.70
2019-03-13T14:27:29.571Z,1.90
2019-03-13T14:28:35.593Z,2.20
2019-03-13T14:29:41.936Z,2.13
2019-03-13T14:30:47.739Z,1.80
2019-03-13T14:31:54.411Z,2.17
2019-03-13T14:33:00.593Z,2.20
2019-03-13T14:34:06.892Z,2.20
2019-03-13T14:35:13.700Z,2.03
2019-03-13T14:36:21.789Z,2.33
2019-03-13T14:37:31.371Z,2.30
2019-03-13T14:38:39.282Z,2.50
2019-03-13T14:39:49.139Z,2.53
2019-03-13T14:40:57.962Z,3.30
2019-03-13T14:42:05.804Z,4.30
2019-03-13T14:43:13.717Z,2.90
2019-03-13T14:44:24.865Z,2.40
2019-03-13T14:45:30.787Z,2.53
2019-03-13T14:46:46.698Z,2.40
2019-03-13T14:47:59.303Z,2.37
2019-03-13T14:49:11.921Z,2.30
2019-03-13T14:50:22.879Z,2.00
2019-03-13T14:51:34.417Z,2.73
2019-03-13T14:52:57.580Z,2.80
2019-03-13T14:54:04.932Z,2.10
2019-03-13T14:55:14.103Z,2.57
2019-03-13T14:56:20.050Z,1.93
2019-03-13T14:57:29.434Z,2.27
2019-03-13T14:58:39.560Z,2.57
2019-03-13T14:59:48.191Z,2.30
2019-03-13T15:00:55.584Z,2.57
2019-03-13T15:02:05.685Z,2.10
2019-03-13T15:03:13.241Z,2.70
2019-03-13T15:04:19.852Z,2.50
2019-03-13T15:54:21.123Z,2.70
2019-03-13T15:55:28.569Z,2.67
2019-03-13T15:56:36.962Z,2.42
2019-03-13T15:57:43.359Z,2.20
2019-03-13T15:58:51.139Z,2.10
2019-03-13T15:59:57.949Z,2.42
2019-03-13T16:01:05.143Z,2.02
2019-03-13T16:02:12.431Z,2.17
2019-03-13T16:03:20.444Z,2.50
2019-03-13T16:04:27.991Z,2.50
2019-03-13T16:05:35.572Z,5.85
2019-03-13T16:06:43.125Z,7.37
2019-03-13T16:07:51.082Z,7.58
2019-03-13T16:09:00.307Z,5.27
2019-03-13T16:10:13.205Z,4.80
2019-03-13T16:11:21.312Z,5.90
2019-03-13T16:12:29.277Z,5.33
2019-03-13T16:13:37.708Z,3.97
2019-03-13T16:14:46.090Z,3.23
2019-03-13T16:15:54.297Z,4.08
2019-03-13T16:17:01.276Z,4.40
2019-03-13T16:18:09.534Z,6.10
2019-03-13T16:19:16.965Z,4.90
2019-03-13T16:20:25.756Z,5.20
2019-03-13T16:21:44.873Z,5.50
2019-03-13T16:23:03.564Z,6.60
2019-03-13T16:24:16.830Z,6.70
2019-03-13T16:25:24.733Z,7.47
2019-03-13T16:26:32.860Z,7.70
2019-03-13T16:27:40.073Z,8.57
2019-03-13T16:28:48.893Z,8.63
2019-03-13T16:29:57.425Z,8.43
2019-03-13T16:31:04.873Z,7.63
2019-03-13T16:32:13.715Z,6.97
2019-03-13T16:33:21.099Z,6.60
2019-03-13T16:34:28.527Z,7.47
2019-03-13T16:35:36.178Z,8.87
2019-03-13T16:36:44.619Z,8.30
2019-03-13T16:37:52.448Z,8.47
2019-03-13T16:45:33.439Z,7.13
2019-03-13T16:46:42.799Z,6.72
2019-03-13T16:47:50.448Z,7.03